Time;durP1;ratioP1;P1;durP2;ratioP2;P2;SDS_P1;SDS_P2;PMS_P1;PMS_P2;Temp;Humidity;BMP_temperature;BMP_pressure;BME280_temperature;BME280_humidity;BME280_pressure;Samples;Min_cycle;Max_cycle;Signal;HPM_P1;HPM_P2
2023/01/30 00:01:46;;;;;;;15.70;10.43;;;5.40;89.00;;;;;;5057537;28;20048;-76
2023/01/30 00:04:12;;;;;;;16.83;9.90;;;5.40;89.00;;;;;;5075101;28;20040;-77
2023/01/30 00:06:40;;;;;;;15.48;9.25;;;5.50;89.10;;;;;;5074594;28;20051;-77
2023/01/30 00:09:06;;;;;;;16.40;10.27;;;5.40;89.10;;;;;;5074389;28;20524;-76
2023/01/30 00:11:32;;;;;;;18.02;10.85;;;5.50;89.30;;;;;;5092842;28;20093;-76
2023/01/30 00:13:59;;;;;;;16.33;9.77;;;5.50;89.30;;;;;;5077447;28;20040;-77
2023/01/30 00:16:24;;;;;;;14.65;9.00;;;5.50;89.30;;;;;;5061073;28;20071;-77
2023/01/30 00:18:50;;;;;;;16.08;9.85;;;5.40;89.30;;;;;;5061209;28;20062;-76
2023/01/30 00:21:16;;;;;;;19.20;10.98;;;5.50;89.40;;;;;;5077727;28;20113;-76
2023/01/30 00:23:43;;;;;;;16.95;10.27;;;5.50;89.40;;;;;;5060994;28;20500;-76
2023/01/30 00:26:09;;;;;;;17.40;11.13;;;5.60;89.60;;;;;;5093790;28;20047;-77
2023/01/30 00:28:35;;;;;;;15.00;9.80;;;5.50;89.50;;;;;;5077934;28;20046;-77
2023/01/30 00:31:00;;;;;;;16.90;10.80;;;5.60;89.50;;;;;;5077912;28;20048;-76
2023/01/30 00:33:26;;;;;;;15.00;9.43;;;5.60;89.60;;;;;;5077577;28;20043;-76
2023/01/30 00:35:55;;;;;;;16.40;10.52;;;5.60;89.60;;;;;;5060888;28;20029;-76
2023/01/30 00:38:21;;;;;;;14.85;9.57;;;5.60;89.60;;;;;;5095976;28;20040;-76
2023/01/30 00:40:47;;;;;;;15.52;8.77;;;5.60;89.60;;;;;;5077170;28;20086;-77
2023/01/30 00:48:35;;;;;;;16.83;9.35;;;5.70;89.80;;;;;;5079474;28;20084;-77
2023/01/30 00:51:01;;;;;;;14.48;9.43;;;5.70;89.80;;;;;;5077259;28;20071;-77
2023/01/30 00:53:27;;;;;;;17.00;10.10;;;5.80;89.80;;;;;;5077058;28;20036;-76
2023/01/30 00:55:54;;;;;;;16.60;10.77;;;5.70;89.80;;;;;;5060282;28;20375;-77
2023/01/30 00:58:21;;;;;;;17.05;10.55;;;5.80;89.80;;;;;;5077663;28;20044;-77
2023/01/30 01:00:47;;;;;;;16.67;10.05;;;5.80;89.80;;;;;;5060742;28;20044;-79
2023/01/30 01:03:13;;;;;;;16.65;10.70;;;5.90;89.90;;;;;;5076913;28;20131;-77
2023/01/30 01:05:39;;;;;;;17.58;11.30;;;5.90;89.90;;;;;;5060346;28;20064;-77
2023/01/30 01:08:05;;;;;;;18.92;12.40;;;5.90;90.00;;;;;;5043751;28;20038;-76
2023/01/30 01:10:31;;;;;;;17.08;10.57;;;5.90;90.00;;;;;;5077017;28;20040;-77
2023/01/30 01:12:57;;;;;;;19.05;11.40;;;5.90;90.00;;;;;;5076782;28;20040;-77
2023/01/30 01:15:24;;;;;;;17.85;11.73;;;6.00;90.00;;;;;;5076739;28;20094;-77
2023/01/30 01:17:51;;;;;;;21.10;12.48;;;6.00;90.00;;;;;;5076906;28;20050;-77
2023/01/30 01:20:17;;;;;;;18.48;12.75;;;6.10;90.00;;;;;;5076836;28;20134;-77
2023/01/30 01:22:43;;;;;;;16.42;11.65;;;6.10;90.00;;;;;;5059863;28;20058;-77
2023/01/30 01:25:10;;;;;;;17.70;11.27;;;6.10;90.00;;;;;;5075862;28;20052;-77
2023/01/30 01:27:36;;;;;;;18.95;11.48;;;6.10;90.10;;;;;;5095073;28;20067;-77
2023/01/30 01:30:03;;;;;;;16.65;10.90;;;6.10;90.00;;;;;;5076641;28;20397;-76
2023/01/30 01:32:28;;;;;;;18.30;11.63;;;6.10;90.10;;;;;;5094784;28;20130;-77
2023/01/30 01:34:54;;;;;;;16.70;11.95;;;6.10;90.10;;;;;;5076280;28;21003;-77
2023/01/30 01:37:19;;;;;;;15.68;10.10;;;6.10;90.10;;;;;;5042982;28;20093;-77
2023/01/30 01:42:34;;;;;;;15.85;10.38;;;6.20;90.10;;;;;;5079143;28;20040;-76
2023/01/30 01:45:17;;;;;;;17.95;10.35;;;6.20;90.20;;;;;;5060129;28;20591;-77
2023/01/30 01:47:52;;;;;;;15.88;10.57;;;6.20;90.20;;;;;;5094306;28;20493;-76
2023/01/30 01:50:22;;;;;;;16.95;11.20;;;6.10;90.20;;;;;;5093041;28;20044;-77
2023/01/30 01:52:51;;;;;;;15.35;10.48;;;6.10;90.20;;;;;;5057987;28;20381;-77
2023/01/30 01:55:19;;;;;;;17.30;10.90;;;6.20;90.60;;;;;;5074345;28;20038;-77
2023/01/30 01:57:59;;;;;;;16.05;10.75;;;6.10;90.30;;;;;;5094285;28;20393;-77
2023/01/30 02:00:25;;;;;;;18.27;11.40;;;6.10;90.40;;;;;;5093235;28;20036;-77
2023/01/30 02:02:59;;;;;;;14.40;10.38;;;6.10;90.40;;;;;;5076768;28;20038;-77
2023/01/30 02:05:30;;;;;;;16.55;10.85;;;6.10;90.40;;;;;;5092979;28;20066;-76
2023/01/30 02:08:09;;;;;;;16.55;11.38;;;6.10;90.40;;;;;;5094554;28;20047;-77
2023/01/30 02:10:49;;;;;;;16.23;9.55;;;6.10;90.50;;;;;;5074252;28;20501;-77
2023/01/30 02:13:15;;;;;;;14.18;8.95;;;6.10;90.50;;;;;;5059256;28;20039;-77
2023/01/30 02:15:42;;;;;;;15.35;10.68;;;6.20;90.50;;;;;;5059105;28;20036;-77
2023/01/30 02:18:08;;;;;;;13.20;9.18;;;6.20;90.50;;;;;;5094333;28;20028;-76
2023/01/30 02:20:56;;;;;;;14.15;9.63;;;6.20;90.50;;;;;;5093789;28;20040;-77
2023/01/30 02:23:49;;;;;;;14.57;9.30;;;6.20;90.60;;;;;;5093808;28;20036;-77
2023/01/30 02:26:39;;;;;;;13.73;9.05;;;6.20;90.60;;;;;;5077926;28;20047;-77
2023/01/30 02:29:36;;;;;;;12.80;8.35;;;6.20;90.60;;;;;;5092039;28;20401;-76
2023/01/30 02:32:26;;;;;;;11.45;7.35;;;6.30;90.60;;;;;;5078692;28;20138;-77
2023/01/30 02:35:27;;;;;;;10.40;7.18;;;6.30;90.60;;;;;;5075355;28;20078;-77
2023/01/30 02:38:13;;;;;;;9.80;6.93;;;6.30;90.60;;;;;;5093266;28;20044;-77
2023/01/30 02:41:05;;;;;;;12.93;8.13;;;6.40;90.60;;;;;;5075139;28;20051;-77
2023/01/30 02:43:55;;;;;;;14.20;7.78;;;6.40;90.60;;;;;;5029624;28;20051;-77
2023/01/30 02:46:37;;;;;;;9.98;6.20;;;6.40;90.60;;;;;;5078064;28;20051;-77
2023/01/30 02:49:13;;;;;;;10.35;6.40;;;6.40;90.60;;;;;;5093473;28;20117;-77
2023/01/30 02:51:41;;;;;;;8.98;6.28;;;6.40;90.60;;;;;;5075824;28;20046;-77
2023/01/30 02:54:10;;;;;;;8.70;5.50;;;6.50;90.60;;;;;;5075840;28;20044;-77
2023/01/30 02:56:55;;;;;;;9.77;5.93;;;6.50;90.70;;;;;;5058648;28;20044;-77
2023/01/30 02:59:33;;;;;;;10.07;5.72;;;6.50;90.70;;;;;;5075300;28;20048;-78
2023/01/30 03:02:18;;;;;;;9.77;5.65;;;6.50;90.70;;;;;;5091869;28;20170;-78
2023/01/30 03:05:10;;;;;;;8.38;5.40;;;6.50;90.80;;;;;;5074857;28;20169;-79
2023/01/30 03:07:59;;;;;;;9.02;5.13;;;6.60;90.80;;;;;;5059250;28;20048;-78
2023/01/30 03:10:34;;;;;;;8.27;5.20;;;6.70;90.80;;;;;;5074582;28;20040;-77
2023/01/30 03:13:10;;;;;;;8.50;4.80;;;6.60;90.70;;;;;;5092778;28;20507;-78
2023/01/30 03:16:10;;;;;;;6.40;4.45;;;6.70;91.00;;;;;;5092843;28;20040;-77
2023/01/30 03:18:35;;;;;;;7.22;4.63;;;6.70;90.80;;;;;;5092883;28;20048;-78
2023/01/30 03:21:06;;;;;;;9.55;5.05;;;6.70;90.80;;;;;;5057778;28;20044;-79
2023/01/30 03:23:32;;;;;;;7.85;4.95;;;6.70;90.90;;;;;;5074482;28;20040;-78
2023/01/30 03:25:59;;;;;;;7.53;4.50;;;6.70;90.90;;;;;;5057808;28;20054;-77
2023/01/30 03:28:26;;;;;;;7.28;4.13;;;6.80;90.90;;;;;;5057956;28;20454;-78
2023/01/30 03:30:51;;;;;;;7.00;3.80;;;6.70;90.90;;;;;;5074924;28;20039;-78
2023/01/30 03:33:17;;;;;;;6.88;4.07;;;6.70;91.00;;;;;;5074496;28;20119;-78
2023/01/30 03:35:43;;;;;;;7.40;4.35;;;6.70;91.00;;;;;;5057998;28;20064;-78
2023/01/30 03:38:09;;;;;;;7.28;4.28;;;6.70;91.10;;;;;;5057868;28;20524;-78
2023/01/30 03:40:35;;;;;;;7.10;4.05;;;6.70;91.10;;;;;;5092407;28;20044;-77
2023/01/30 03:43:01;;;;;;;7.75;4.07;;;6.80;91.20;;;;;;5092909;28;20117;-77
2023/01/30 03:45:27;;;;;;;6.40;4.03;;;6.80;91.20;;;;;;5074414;28;20493;-77
2023/01/30 03:47:52;;;;;;;5.68;3.45;;;6.80;91.20;;;;;;5055979;28;20044;-78
2023/01/30 03:50:18;;;;;;;6.15;3.90;;;6.80;91.20;;;;;;5073975;28;20439;-77
2023/01/30 03:52:43;;;;;;;7.50;4.00;;;6.80;91.20;;;;;;5074399;28;20078;-77
2023/01/30 03:55:09;;;;;;;4.95;2.90;;;6.70;91.20;;;;;;5057235;28;20046;-77
2023/01/30 03:57:35;;;;;;;5.25;3.30;;;6.70;91.20;;;;;;5073886;28;20044;-78
2023/01/30 04:00:03;;;;;;;6.15;3.10;;;6.80;91.30;;;;;;5092492;28;20048;-77
2023/01/30 04:02:28;;;;;;;5.18;3.25;;;6.80;91.30;;;;;;5057230;28;20585;-78
2023/01/30 04:04:54;;;;;;;5.70;3.67;;;6.80;91.40;;;;;;5074183;28;20074;-78
2023/01/30 04:07:19;;;;;;;7.72;3.90;;;6.80;91.40;;;;;;5073972;28;20092;-79
2023/01/30 04:09:45;;;;;;;9.63;3.88;;;6.80;91.70;;;;;;5074468;28;20474;-78
2023/01/30 04:12:11;;;;;;;9.18;4.20;;;6.80;91.40;;;;;;5057267;28;20032;-77
2023/01/30 04:14:36;;;;;;;8.70;4.10;;;7.00;91.50;;;;;;5057155;28;20136;-78
2023/01/30 04:17:02;;;;;;;8.30;3.92;;;6.90;91.50;;;;;;5074050;28;20122;-78
2023/01/30 04:19:27;;;;;;;5.43;3.47;;;6.90;91.50;;;;;;5092205;28;20128;-78
2023/01/30 04:21:53;;;;;;;5.78;3.08;;;6.90;91.50;;;;;;5091894;28;20086;-78
2023/01/30 04:24:19;;;;;;;6.00;3.13;;;7.00;91.50;;;;;;5074387;28;20136;-77
2023/01/30 04:26:44;;;;;;;6.22;3.33;;;7.00;91.50;;;;;;5073773;28;20044;-78
2023/01/30 04:29:10;;;;;;;8.10;3.53;;;7.00;91.50;;;;;;5073738;28;20063;-77
2023/01/30 04:31:35;;;;;;;5.80;3.42;;;7.00;91.50;;;;;;5073709;28;20355;-78
2023/01/30 04:34:01;;;;;;;7.03;4.03;;;7.00;91.50;;;;;;5073727;28;20149;-78
2023/01/30 04:36:28;;;;;;;7.95;3.33;;;7.10;91.50;;;;;;5056898;28;20048;-78
2023/01/30 04:38:53;;;;;;;9.02;3.42;;;7.00;91.50;;;;;;5073778;28;20032;-78
2023/01/30 04:41:19;;;;;;;6.13;3.65;;;7.10;91.80;;;;;;5074065;28;20055;-78
2023/01/30 04:43:45;;;;;;;6.78;3.28;;;7.10;91.60;;;;;;5073731;28;20074;-78
2023/01/30 04:46:10;;;;;;;5.80;2.95;;;7.10;91.60;;;;;;5073508;28;20501;-78
2023/01/30 04:48:36;;;;;;;6.32;3.40;;;7.10;91.60;;;;;;5073464;28;20047;-78
2023/01/30 04:51:02;;;;;;;7.80;3.35;;;7.10;91.60;;;;;;5091956;28;20439;-78
2023/01/30 04:53:27;;;;;;;5.60;3.30;;;7.10;91.60;;;;;;5056618;28;20051;-77
2023/01/30 04:55:53;;;;;;;6.00;3.08;;;7.20;91.70;;;;;;5091453;28;20078;-78
2023/01/30 04:58:19;;;;;;;5.88;3.17;;;7.10;91.60;;;;;;5073395;28;20063;-78
2023/01/30 05:00:44;;;;;;;5.65;2.78;;;7.20;91.70;;;;;;5094880;28;20402;-77
2023/01/30 05:03:10;;;;;;;5.90;2.97;;;7.10;91.70;;;;;;5076898;28;20170;-78
2023/01/30 05:05:36;;;;;;;5.65;2.78;;;7.20;91.70;;;;;;5077148;28;20052;-77
2023/01/30 05:08:02;;;;;;;5.40;3.08;;;7.20;91.70;;;;;;5095048;28;20047;-78
2023/01/30 05:10:28;;;;;;;5.22;3.13;;;7.20;91.70;;;;;;5076704;28;20409;-78
2023/01/30 05:12:53;;;;;;;5.78;2.88;;;7.20;91.70;;;;;;5027033;28;20043;-78
2023/01/30 05:15:19;;;;;;;5.55;2.65;;;7.20;91.70;;;;;;5076706;28;20050;-77
2023/01/30 05:17:45;;;;;;;7.57;3.10;;;7.30;91.70;;;;;;5076781;28;20064;-77
2023/01/30 05:20:12;;;;;;;6.78;3.00;;;7.20;91.70;;;;;;5076731;28;20501;-77
2023/01/30 05:22:38;;;;;;;4.65;2.55;;;7.30;91.70;;;;;;5058203;28;20036;-78
2023/01/30 05:25:04;;;;;;;5.97;2.58;;;7.30;91.70;;;;;;5076659;28;20043;-78
2023/01/30 05:27:30;;;;;;;5.65;2.38;;;7.30;91.70;;;;;;5076925;28;20036;-78
2023/01/30 05:29:55;;;;;;;5.13;2.55;;;7.30;92.00;;;;;;5094849;28;20581;-77
2023/01/30 05:32:21;;;;;;;5.15;2.42;;;7.40;91.70;;;;;;5077142;28;20054;-77
2023/01/30 05:34:48;;;;;;;5.00;2.53;;;7.40;91.70;;;;;;5076639;28;20481;-78
2023/01/30 05:37:14;;;;;;;3.88;2.28;;;7.30;91.70;;;;;;5060212;28;20058;-77
2023/01/30 05:39:39;;;;;;;5.53;2.47;;;7.40;91.70;;;;;;5043321;28;20040;-77
2023/01/30 05:42:05;;;;;;;5.25;2.22;;;7.30;91.70;;;;;;5076516;28;20100;-76
2023/01/30 05:44:31;;;;;;;5.50;2.00;;;7.30;91.80;;;;;;5076917;28;20059;-76
2023/01/30 05:46:59;;;;;;;5.88;1.95;;;7.20;91.70;;;;;;5094476;28;20043;-76
2023/01/30 05:49:24;;;;;;;3.22;1.65;;;7.30;91.80;;;;;;5060049;28;20044;-78
2023/01/30 05:51:50;;;;;;;2.65;1.55;;;7.40;91.80;;;;;;5076941;28;20036;-77
2023/01/30 05:54:18;;;;;;;3.85;1.65;;;7.30;91.80;;;;;;5078841;28;20371;-78
2023/01/30 05:56:49;;;;;;;5.13;1.80;;;7.30;91.80;;;;;;5081041;28;20055;-76
2023/01/30 05:59:15;;;;;;;4.20;1.63;;;7.40;91.70;;;;;;5026589;28;20575;-77
2023/01/30 06:01:41;;;;;;;4.25;1.20;;;7.40;91.70;;;;;;5059679;28;20071;-77
2023/01/30 06:04:06;;;;;;;2.97;1.25;;;7.40;91.60;;;;;;5032346;28;20490;-77
2023/01/30 06:06:34;;;;;;;5.10;1.50;;;7.40;91.60;;;;;;5042609;28;20089;-77
2023/01/30 06:09:00;;;;;;;4.85;1.70;;;7.40;91.60;;;;;;5039061;28;20038;-77
2023/01/30 06:11:29;;;;;;;3.92;1.65;;;7.50;91.60;;;;;;5058995;28;20097;-79
2023/01/30 06:15:05;;;;;;;3.70;1.35;;;7.40;91.60;;;;;;5006338;28;20107;-78
2023/01/30 06:18:31;;;;;;;5.05;1.65;;;7.40;91.50;;;;;;4914734;29;20107;-77
2023/01/30 06:21:30;;;;;;;3.13;1.23;;;7.40;91.40;;;;;;4862517;29;20140;-79
2023/01/30 06:23:56;;;;;;;3.20;1.15;;;7.40;91.40;;;;;;4840056;29;20109;-77
2023/01/30 06:26:35;;;;;;;4.78;1.40;;;7.30;91.40;;;;;;4841331;29;20453;-79
2023/01/30 06:29:03;;;;;;;4.03;1.13;;;7.30;91.40;;;;;;4810744;29;20054;-78
2023/01/30 06:31:32;;;;;;;3.65;1.20;;;7.30;91.40;;;;;;4822581;29;20083;-77
2023/01/30 06:33:57;;;;;;;3.55;1.33;;;7.20;91.30;;;;;;4837671;29;20078;-78
2023/01/30 06:42:55;;;;;;;3.78;1.10;;;7.20;91.30;;;;;;4817502;29;19923;-78
2023/01/30 06:45:50;;;;;;;6.88;1.63;;;7.10;91.20;;;;;;4817476;29;20208;-79
2023/01/30 06:48:19;;;;;;;4.53;1.20;;;7.20;91.20;;;;;;4809452;29;20070;-79
2023/01/30 06:51:26;;;;;;;3.67;1.23;;;7.10;91.10;;;;;;4838018;29;20045;-77
2023/01/30 06:53:54;;;;;;;3.83;1.20;;;7.10;91.10;;;;;;4845274;29;20050;-78
2023/01/30 06:56:52;;;;;;;7.57;1.48;;;7.00;91.20;;;;;;4827709;29;20618;-78
2023/01/30 07:00:05;;;;;;;3.70;1.10;;;6.90;91.20;;;;;;4828946;29;20129;-79
2023/01/30 07:02:34;;;;;;;5.00;1.40;;;6.80;91.20;;;;;;4828871;29;20061;-74
2023/01/30 07:05:01;;;;;;;2.97;1.40;;;6.80;91.20;;;;;;4895698;29;20060;-76
2023/01/30 07:07:28;;;;;;;3.25;1.35;;;6.80;91.20;;;;;;4886964;29;20077;-75
2023/01/30 07:09:53;;;;;;;3.53;1.20;;;6.70;91.20;;;;;;4915179;29;20085;-75
2023/01/30 07:12:19;;;;;;;3.20;1.10;;;6.70;91.20;;;;;;4916554;29;20044;-76
2023/01/30 07:14:45;;;;;;;4.07;1.15;;;6.60;91.20;;;;;;4920911;29;20137;-79
2023/01/30 07:17:21;;;;;;;3.60;1.17;;;6.60;91.20;;;;;;4905662;29;20058;-79
2023/01/30 07:19:48;;;;;;;2.78;1.05;;;6.60;91.30;;;;;;4922067;29;20044;-76
2023/01/30 07:22:15;;;;;;;5.55;1.70;;;6.40;91.30;;;;;;4941792;28;20041;-77
2023/01/30 07:24:45;;;;;;;3.97;1.20;;;6.40;91.30;;;;;;4980875;28;20046;-77
2023/01/30 07:27:22;;;;;;;3.78;1.10;;;6.40;91.20;;;;;;5005348;28;20519;-77
2023/01/30 07:29:53;;;;;;;4.00;0.98;;;6.40;91.20;;;;;;4933234;29;20045;-77
2023/01/30 07:32:58;;;;;;;3.38;0.98;;;6.30;91.20;;;;;;4954484;28;20476;-77
2023/01/30 07:39:00;;;;;;;3.78;1.13;;;6.30;91.30;;;;;;4873445;29;20065;-77
2023/01/30 07:41:29;;;;;;;3.90;1.10;;;6.20;91.20;;;;;;4854719;29;20058;-75
2023/01/30 07:43:55;;;;;;;4.85;1.30;;;6.30;91.20;;;;;;4839809;29;20038;-77
2023/01/30 07:46:33;;;;;;;4.28;1.02;;;6.20;91.10;;;;;;4854451;29;20187;-77
2023/01/30 07:49:39;;;;;;;6.72;1.45;;;6.30;91.10;;;;;;4837140;29;20138;-80
2023/01/30 07:52:51;;;;;;;6.30;1.00;;;6.20;91.00;;;;;;4856543;29;20060;-79
2023/01/30 07:55:34;;;;;;;;;;;6.20;91.00;;;;;;4836238;29;20094;-79
2023/01/30 07:59:10;;;;;;;4.97;1.55;;;6.30;91.00;;;;;;4838681;29;19916;-80
2023/01/30 08:05:14;;;;;;;3.20;1.10;;;6.10;90.80;;;;;;4765833;30;20082;-79
2023/01/30 08:12:20;;;;;;;5.53;1.42;;;6.10;90.90;;;;;;4679040;30;20050;-80
2023/01/30 08:15:30;;;;;;;3.30;1.17;;;6.10;90.80;;;;;;4710500;30;20045;-82
2023/01/30 09:49:53;;;;;;;7.25;1.73;;;7.40;87.00;;;;;;4668302;30;20054;-82
2023/01/30 09:52:58;;;;;;;5.97;1.60;;;7.40;86.80;;;;;;4672170;30;20054;-81
2023/01/30 09:55:33;;;;;;;6.75;1.77;;;7.40;86.80;;;;;;4675437;30;20120;-80
2023/01/30 10:04:51;;;;;;;6.23;1.43;;;7.50;86.50;;;;;;4651154;30;20073;-79
2023/01/30 10:07:43;;;;;;;8.63;1.95;;;7.60;86.50;;;;;;4650475;30;20062;-81
2023/01/30 10:10:25;;;;;;;7.05;1.92;;;7.60;86.20;;;;;;4594968;30;20123;-77
2023/01/30 10:13:11;;;;;;;8.48;2.20;;;7.60;86.10;;;;;;4629708;31;20070;-78
2023/01/30 10:15:57;;;;;;;4.53;1.40;;;7.70;86.10;;;;;;4605898;31;20112;-78
2023/01/30 10:18:47;;;;;;;4.88;1.30;;;7.70;86.00;;;;;;4612524;31;20087;-79
2023/01/30 10:21:57;;;;;;;7.05;1.88;;;7.70;85.90;;;;;;4657224;30;20062;-78
2023/01/30 10:25:02;;;;;;;5.35;1.58;;;7.80;85.80;;;;;;4699550;30;20054;-78
2023/01/30 10:28:15;;;;;;;6.25;1.70;;;7.80;85.60;;;;;;4711543;30;20057;-79
2023/01/30 10:31:00;;;;;;;5.55;1.35;;;7.80;85.50;;;;;;4660906;30;20055;-79
2023/01/30 10:33:36;;;;;;;3.55;1.30;;;7.70;85.40;;;;;;4686635;30;20065;-77
2023/01/30 10:36:27;;;;;;;4.25;1.23;;;7.80;85.50;;;;;;4727129;30;20049;-78
2023/01/30 10:39:24;;;;;;;5.10;1.50;;;7.80;85.60;;;;;;4695296;30;20119;-79
2023/01/30 10:43:03;;;;;;;8.00;1.70;;;7.70;85.60;;;;;;4731875;30;20360;-79
2023/01/30 10:45:38;;;;;;;4.03;1.23;;;7.80;85.60;;;;;;4735222;30;20049;-78
2023/01/30 10:48:42;;;;;;;5.53;1.40;;;7.70;85.60;;;;;;4739283;30;20504;-79
2023/01/30 10:51:38;;;;;;;10.20;1.67;;;7.70;85.60;;;;;;4756819;30;20067;-79
2023/01/30 10:54:21;;;;;;;9.27;1.75;;;7.70;85.30;;;;;;4723594;30;20052;-78
2023/01/30 11:00:13;;;;;;;6.50;1.45;;;7.80;85.20;;;;;;4736334;30;20053;-78
2023/01/30 11:02:59;;;;;;;4.65;1.27;;;7.90;85.00;;;;;;4719070;30;20102;-77
2023/01/30 11:09:13;;;;;;;5.43;1.70;;;7.90;84.90;;;;;;4701687;30;20049;-78
2023/01/30 11:15:43;;;;;;;7.50;1.73;;;8.10;84.50;;;;;;4717854;30;20041;-77
2023/01/30 11:19:00;;;;;;;4.30;1.35;;;8.10;84.30;;;;;;4669370;30;20043;-76
2023/01/30 11:21:03;;;;;;;;;;;8.10;84.20;;;;;;4650263;30;20048;-77
2023/01/30 11:23:41;;;;;;;6.18;1.52;;;8.10;84.30;;;;;;4643642;30;19929;-79
2023/01/30 11:26:21;;;;;;;5.65;1.90;;;8.10;84.20;;;;;;4661721;30;20093;-78
2023/01/30 11:29:30;;;;;;;4.65;1.27;;;8.00;84.10;;;;;;4653686;30;20102;-77
2023/01/30 11:32:11;;;;;;;7.30;1.30;;;8.40;84.10;;;;;;4659558;30;20055;-77
2023/01/30 11:35:02;;;;;;;5.43;1.38;;;8.50;83.60;;;;;;4661849;30;20054;-79
2023/01/30 11:37:34;;;;;;;3.78;1.13;;;8.50;83.50;;;;;;4699065;30;20096;-78
2023/01/30 11:44:47;;;;;;;5.10;1.48;;;8.60;83.20;;;;;;4627357;30;20118;-80
2023/01/30 11:51:34;;;;;;;8.43;2.05;;;8.80;82.40;;;;;;4629483;30;20085;-81
2023/01/30 11:54:36;;;;;;;6.18;1.70;;;8.80;81.90;;;;;;4612020;31;20112;-78
2023/01/30 11:57:28;;;;;;;7.13;1.70;;;8.80;82.10;;;;;;4591722;31;20068;-78
2023/01/30 12:00:52;;;;;;;5.32;1.48;;;8.90;82.00;;;;;;4583798;31;20494;-80
2023/01/30 12:03:41;;;;;;;4.80;1.35;;;8.90;82.00;;;;;;4591522;31;20059;-78
2023/01/30 12:06:35;;;;;;;5.72;1.67;;;9.00;81.70;;;;;;4595105;31;20762;-80
2023/01/30 12:09:22;;;;;;;6.63;1.73;;;9.00;81.40;;;;;;4626457;30;20084;-78
2023/01/30 12:11:47;;;;;;;8.90;2.05;;;9.00;81.20;;;;;;4621213;30;20031;-77
2023/01/30 12:14:39;;;;;;;5.05;1.50;;;8.90;81.10;;;;;;4657499;30;20069;-77
2023/01/30 12:17:25;;;;;;;5.50;1.60;;;8.90;81.40;;;;;;4698637;30;20517;-77
2023/01/30 12:20:04;;;;;;;5.28;1.85;;;9.00;81.50;;;;;;4683038;30;20046;-77
2023/01/30 12:22:44;;;;;;;4.93;1.52;;;9.00;81.30;;;;;;4783300;29;20050;-78
2023/01/30 12:25:19;;;;;;;11.35;1.95;;;9.10;81.10;;;;;;4822166;29;20095;-78
2023/01/30 12:27:55;;;;;;;4.65;1.63;;;9.00;80.80;;;;;;4824892;29;20113;-77
2023/01/30 12:30:32;;;;;;;5.10;1.52;;;8.90;80.90;;;;;;4816695;29;20046;-78
2023/01/30 12:33:03;;;;;;;4.55;1.70;;;8.90;80.80;;;;;;4847596;29;20102;-74
2023/01/30 12:35:47;;;;;;;4.65;1.55;;;8.90;80.80;;;;;;4881505;29;20040;-74
2023/01/30 12:38:29;;;;;;;7.15;1.70;;;8.80;81.00;;;;;;4850675;29;20148;-75
2023/01/30 12:41:07;;;;;;;4.07;1.33;;;8.80;81.00;;;;;;4883217;29;20045;-76
2023/01/30 12:44:04;;;;;;;6.90;1.42;;;8.80;81.00;;;;;;4868314;29;20045;-75
2023/01/30 12:46:51;;;;;;;5.03;1.40;;;8.80;81.10;;;;;;4881646;29;20052;-77
2023/01/30 12:49:37;;;;;;;4.13;1.25;;;8.80;81.10;;;;;;4884120;29;20124;-75
2023/01/30 12:52:36;;;;;;;6.65;1.40;;;8.70;81.20;;;;;;4881840;29;20037;-74
2023/01/30 12:55:30;;;;;;;3.28;1.02;;;8.80;81.20;;;;;;4883147;29;20544;-75
2023/01/30 12:58:19;;;;;;;4.05;1.20;;;8.80;81.30;;;;;;4882026;29;20044;-78
2023/01/30 13:01:15;;;;;;;7.35;1.45;;;8.80;81.20;;;;;;4881408;29;20491;-77
2023/01/30 13:03:54;;;;;;;5.93;1.55;;;8.80;81.10;;;;;;4863778;29;20539;-76
2023/01/30 13:06:55;;;;;;;4.22;1.75;;;8.80;81.10;;;;;;4865569;29;20037;-77
2023/01/30 13:12:59;;;;;;;3.30;1.20;;;8.70;81.00;;;;;;4878479;29;20365;-77
2023/01/30 13:30:14;;;;;;;4.40;1.55;;;8.70;80.20;;;;;;4780528;30;20121;-76
2023/01/30 13:36:32;;;;;;;4.75;1.45;;;8.60;80.10;;;;;;4703819;30;20089;-76
2023/01/30 13:39:11;;;;;;;5.53;1.50;;;8.60;80.20;;;;;;4704303;30;20066;-75
2023/01/30 13:41:42;;;;;;;4.70;1.10;;;8.60;80.30;;;;;;4676508;30;20184;-77
2023/01/30 13:44:29;;;;;;;7.45;1.20;;;8.50;80.30;;;;;;4703854;30;20061;-76
2023/01/30 13:47:02;;;;;;;4.53;1.05;;;8.50;80.40;;;;;;4667578;30;20042;-75
2023/01/30 13:49:42;;;;;;;4.25;1.90;;;8.50;80.30;;;;;;4681002;30;20061;-75
2023/01/30 13:52:39;;;;;;;4.80;1.20;;;8.60;80.20;;;;;;4682967;30;20560;-77
2023/01/30 13:55:41;;;;;;;5.00;1.30;;;8.60;80.10;;;;;;4620074;30;20040;-74
2023/01/30 13:59:00;;;;;;;6.65;1.15;;;8.50;80.20;;;;;;4676582;30;20029;-78
2023/01/30 14:31:00;;;;;;;4.78;1.30;;;8.60;79.10;;;;;;4715372;29;20055;-76
2023/01/30 14:33:35;;;;;;;5.93;1.88;;;8.70;79.10;;;;;;4771560;29;20043;-76
2023/01/30 14:36:49;;;;;;;8.25;1.88;;;8.70;79.10;;;;;;4785411;29;20043;-76
2023/01/30 14:46:59;;;;;;;3.40;1.10;;;8.50;79.30;;;;;;4708295;30;20090;-76
2023/01/30 14:49:28;;;;;;;3.97;1.33;;;8.50;79.40;;;;;;4716016;30;20158;-75
2023/01/30 14:51:55;;;;;;;3.72;1.13;;;8.50;79.50;;;;;;4732697;30;20163;-76
2023/01/30 14:54:26;;;;;;;3.38;1.23;;;8.40;79.50;;;;;;4732481;30;20571;-76
2023/01/30 15:27:31;;;;;;;3.42;0.90;;;8.10;80.20;;;;;;4644731;30;20086;-75
2023/01/30 15:34:04;;;;;;;3.90;1.00;;;8.10;80.30;;;;;;4570871;31;20117;-76
2023/01/30 15:36:41;;;;;;;2.53;0.77;;;8.10;80.30;;;;;;4541844;31;20057;-75
2023/01/30 15:39:25;;;;;;;3.92;0.82;;;8.10;80.40;;;;;;4535542;31;20081;-76
2023/01/30 15:42:16;;;;;;;3.35;0.93;;;8.20;80.50;;;;;;4541507;31;20080;-74
2023/01/30 15:45:08;;;;;;;3.17;1.10;;;8.10;80.50;;;;;;4549474;31;20046;-74
2023/01/30 15:48:00;;;;;;;4.43;1.10;;;8.10;80.60;;;;;;4568376;31;20070;-74
2023/01/30 15:50:31;;;;;;;;;;;8.10;80.50;;;;;;4615749;31;20062;-74
2023/01/30 15:52:57;;;;;;;4.07;1.00;;;8.10;80.40;;;;;;4612455;31;19921;-76
2023/01/30 15:55:28;;;;;;;3.08;0.90;;;8.20;81.00;;;;;;4628555;30;20519;-74
2023/01/30 15:58:04;;;;;;;3.17;1.00;;;8.00;80.20;;;;;;4679798;30;20217;-74
2023/01/30 16:00:32;;;;;;;2.80;0.95;;;8.00;80.30;;;;;;4677912;30;20049;-74
2023/01/30 16:03:00;;;;;;;2.90;1.00;;;8.00;80.30;;;;;;4700563;30;20050;-74
2023/01/30 16:05:27;;;;;;;3.10;1.10;;;8.00;80.40;;;;;;4758348;30;20047;-75
2023/01/30 16:07:56;;;;;;;6.10;1.20;;;8.00;80.40;;;;;;4812337;29;20050;-76
2023/01/30 16:10:28;;;;;;;4.30;1.50;;;8.00;80.40;;;;;;4840560;29;20137;-74
2023/01/30 16:12:55;;;;;;;6.00;1.40;;;8.00;80.50;;;;;;4843062;29;20043;-75
2023/01/30 16:15:31;;;;;;;3.92;0.85;;;7.90;80.50;;;;;;4848429;29;20061;-75
2023/01/30 16:18:26;;;;;;;3.17;0.80;;;7.90;80.50;;;;;;4869022;29;20789;-75
2023/01/30 16:20:59;;;;;;;7.70;1.48;;;7.90;80.70;;;;;;4858456;29;20393;-74
2023/01/30 16:23:32;;;;;;;3.30;0.80;;;7.80;80.70;;;;;;4879487;29;20520;-74
2023/01/30 16:25:58;;;;;;;1.63;0.85;;;7.80;80.80;;;;;;4879983;29;20081;-74
2023/01/30 16:28:26;;;;;;;3.83;1.13;;;7.70;81.00;;;;;;4870199;29;20037;-74
2023/01/30 16:30:58;;;;;;;3.67;0.88;;;7.70;81.10;;;;;;4850107;29;20381;-74
2023/01/30 16:33:23;;;;;;;3.95;1.10;;;7.70;81.30;;;;;;4883787;29;20135;-74
2023/01/30 16:35:51;;;;;;;3.47;1.20;;;7.60;81.30;;;;;;4884362;29;20142;-74
2023/01/30 16:38:33;;;;;;;2.15;0.85;;;7.50;81.30;;;;;;4885633;29;20044;-75
2023/01/30 16:41:24;;;;;;;6.15;1.40;;;7.60;81.30;;;;;;4887519;29;20084;-78
2023/01/30 16:44:17;;;;;;;1.95;0.73;;;7.60;81.20;;;;;;4855417;29;20062;-75
2023/01/30 16:47:07;;;;;;;3.53;1.00;;;7.60;81.30;;;;;;4822348;29;20054;-74
2023/01/30 16:49:53;;;;;;;2.75;0.80;;;7.50;81.30;;;;;;4829129;29;20065;-75
2023/01/30 16:52:40;;;;;;;3.17;1.00;;;7.50;81.20;;;;;;4826158;29;20093;-76
2023/01/30 16:55:29;;;;;;;6.18;1.35;;;7.50;81.20;;;;;;4796333;29;20164;-77
2023/01/30 16:57:59;;;;;;;3.95;1.20;;;7.30;81.20;;;;;;4796730;29;20054;-75
2023/01/30 17:00:32;;;;;;;3.83;0.90;;;7.30;81.40;;;;;;4812762;29;20043;-75
2023/01/30 17:03:02;;;;;;;2.88;1.02;;;7.10;81.50;;;;;;4797900;29;20043;-75
2023/01/30 17:05:35;;;;;;;3.20;1.08;;;7.00;81.80;;;;;;4778783;29;20079;-75
2023/01/30 17:08:01;;;;;;;5.05;1.08;;;7.00;82.00;;;;;;4816771;29;20042;-75
2023/01/30 17:10:50;;;;;;;4.10;1.00;;;6.90;82.10;;;;;;4803109;29;20057;-76
2023/01/30 17:13:31;;;;;;;2.50;0.80;;;6.80;82.40;;;;;;4807736;29;20034;-74
2023/01/30 17:16:08;;;;;;;;;;;6.70;82.40;;;;;;4848637;29;20034;-76
2023/01/30 17:25:34;;;;;;;3.85;1.27;;;6.60;80.50;;;;;;5168984;27;20119;-76
2023/01/30 17:28:00;;;;;;;2.53;0.80;;;6.50;80.30;;;;;;5119139;28;20036;-76
2023/01/30 17:30:26;;;;;;;2.20;0.75;;;6.40;80.90;;;;;;5120044;28;20043;-76
2023/01/30 17:32:51;;;;;;;3.13;0.98;;;6.40;81.50;;;;;;5154959;27;20074;-76
2023/01/30 17:35:17;;;;;;;3.58;1.00;;;6.40;82.10;;;;;;5154244;27;20058;-76
2023/01/30 17:37:43;;;;;;;3.05;0.90;;;6.40;82.40;;;;;;5136284;28;20039;-77
2023/01/30 17:40:16;;;;;;;2.90;0.90;;;6.40;82.60;;;;;;5112125;28;20276;-76
2023/01/30 17:42:42;;;;;;;4.97;1.00;;;6.40;82.90;;;;;;5132217;28;20035;-76
2023/01/30 17:45:09;;;;;;;1.02;0.43;;;6.40;82.90;;;;;;5077542;28;20051;-75
2023/01/30 17:47:35;;;;;;;3.85;0.90;;;6.40;83.10;;;;;;5096461;28;20438;-76